sensor_id;sensor_type;location;lat;lon;timestamp;P1;durP1;ratioP1;P2;durP2;ratioP2
52668;SDS011;59898;52.786;6.892;2023-04-24T00:03:10;3.00;;;2.22;;
52668;SDS011;59898;52.786;6.892;2023-04-24T00:06:32;3.70;;;2.90;;
52668;SDS011;59898;52.786;6.892;2023-04-24T00:09:53;4.22;;;3.33;;
52668;SDS011;59898;52.786;6.892;2023-04-24T00:13:14;4.60;;;3.60;;
52668;SDS011;59898;52.786;6.892;2023-04-24T00:16:35;4.97;;;3.90;;
52668;SDS011;59898;52.786;6.892;2023-04-24T00:19:55;4.35;;;3.80;;
52668;SDS011;59898;52.786;6.892;2023-04-24T00:23:18;4.45;;;3.40;;
52668;SDS011;59898;52.786;6.892;2023-04-24T00:26:39;4.78;;;4.07;;
52668;SDS011;59898;52.786;6.892;2023-04-24T00:29:59;5.28;;;4.47;;
52668;SDS011;59898;52.786;6.892;2023-04-24T00:33:20;4.00;;;3.30;;
52668;SDS011;59898;52.786;6.892;2023-04-24T00:36:40;3.40;;;2.83;;
52668;SDS011;59898;52.786;6.892;2023-04-24T00:40:01;3.38;;;2.60;;
52668;SDS011;59898;52.786;6.892;2023-04-24T00:43:23;3.40;;;2.80;;
52668;SDS011;59898;52.786;6.892;2023-04-24T00:46:43;2.50;;;2.10;;
52668;SDS011;59898;52.786;6.892;2023-04-24T00:50:05;3.83;;;2.55;;
52668;SDS011;59898;52.786;6.892;2023-04-24T00:53:27;2.50;;;2.10;;
52668;SDS011;59898;52.786;6.892;2023-04-24T00:56:47;3.40;;;2.28;;
52668;SDS011;59898;52.786;6.892;2023-04-24T01:00:08;2.90;;;2.42;;
52668;SDS011;59898;52.786;6.892;2023-04-24T01:03:32;2.92;;;2.50;;
52668;SDS011;59898;52.786;6.892;2023-04-24T01:06:56;3.10;;;2.72;;
52668;SDS011;59898;52.786;6.892;2023-04-24T01:10:17;3.00;;;2.53;;
52668;SDS011;59898;52.786;6.892;2023-04-24T01:13:40;3.95;;;3.00;;
52668;SDS011;59898;52.786;6.892;2023-04-24T01:17:01;3.53;;;2.67;;
52668;SDS011;59898;52.786;6.892;2023-04-24T01:20:22;6.30;;;3.75;;
52668;SDS011;59898;52.786;6.892;2023-04-24T01:23:44;3.13;;;2.83;;
52668;SDS011;59898;52.786;6.892;2023-04-24T01:27:06;3.90;;;3.15;;
52668;SDS011;59898;52.786;6.892;2023-04-24T01:30:27;4.25;;;3.72;;
52668;SDS011;59898;52.786;6.892;2023-04-24T01:33:48;4.32;;;3.60;;
52668;SDS011;59898;52.786;6.892;2023-04-24T01:37:09;4.18;;;3.78;;
52668;SDS011;59898;52.786;6.892;2023-04-24T01:40:30;6.22;;;4.32;;
52668;SDS011;59898;52.786;6.892;2023-04-24T01:43:52;5.03;;;4.15;;
52668;SDS011;59898;52.786;6.892;2023-04-24T01:47:13;4.35;;;3.80;;
52668;SDS011;59898;52.786;6.892;2023-04-24T01:50:34;5.80;;;5.20;;
52668;SDS011;59898;52.786;6.892;2023-04-24T01:53:55;6.22;;;5.57;;
52668;SDS011;59898;52.786;6.892;2023-04-24T01:57:16;7.30;;;5.57;;
52668;SDS011;59898;52.786;6.892;2023-04-24T02:00:36;6.90;;;5.80;;
52668;SDS011;59898;52.786;6.892;2023-04-24T02:03:57;9.38;;;6.85;;
52668;SDS011;59898;52.786;6.892;2023-04-24T02:07:17;10.07;;;7.40;;
52668;SDS011;59898;52.786;6.892;2023-04-24T02:10:38;7.53;;;6.40;;
52668;SDS011;59898;52.786;6.892;2023-04-24T02:13:58;7.40;;;6.43;;
52668;SDS011;59898;52.786;6.892;2023-04-24T02:17:19;8.73;;;7.03;;
52668;SDS011;59898;52.786;6.892;2023-04-24T02:20:40;9.07;;;6.93;;
52668;SDS011;59898;52.786;6.892;2023-04-24T02:24:00;9.52;;;7.00;;
52668;SDS011;59898;52.786;6.892;2023-04-24T02:27:21;9.68;;;6.07;;
52668;SDS011;59898;52.786;6.892;2023-04-24T02:30:41;7.20;;;6.50;;
52668;SDS011;59898;52.786;6.892;2023-04-24T02:34:02;7.93;;;6.78;;
52668;SDS011;59898;52.786;6.892;2023-04-24T02:37:22;6.90;;;6.05;;
52668;SDS011;59898;52.786;6.892;2023-04-24T02:40:43;6.45;;;5.63;;
52668;SDS011;59898;52.786;6.892;2023-04-24T02:44:03;7.88;;;5.70;;
52668;SDS011;59898;52.786;6.892;2023-04-24T02:47:24;6.18;;;5.22;;
52668;SDS011;59898;52.786;6.892;2023-04-24T02:50:45;6.50;;;5.70;;
52668;SDS011;59898;52.786;6.892;2023-04-24T02:54:05;7.90;;;6.15;;
52668;SDS011;59898;52.786;6.892;2023-04-24T02:57:26;7.60;;;5.43;;
52668;SDS011;59898;52.786;6.892;2023-04-24T03:00:46;5.88;;;4.60;;
52668;SDS011;59898;52.786;6.892;2023-04-24T03:04:07;5.57;;;4.60;;
52668;SDS011;59898;52.786;6.892;2023-04-24T03:07:28;5.53;;;4.32;;
52668;SDS011;59898;52.786;6.892;2023-04-24T03:10:48;5.45;;;4.45;;
52668;SDS011;59898;52.786;6.892;2023-04-24T03:14:09;6.40;;;4.95;;
52668;SDS011;59898;52.786;6.892;2023-04-24T03:17:29;5.93;;;5.25;;
52668;SDS011;59898;52.786;6.892;2023-04-24T03:20:50;5.15;;;4.50;;
52668;SDS011;59898;52.786;6.892;2023-04-24T03:24:11;5.40;;;4.65;;
52668;SDS011;59898;52.786;6.892;2023-04-24T03:27:31;6.47;;;5.63;;
52668;SDS011;59898;52.786;6.892;2023-04-24T03:30:52;7.38;;;5.53;;
52668;SDS011;59898;52.786;6.892;2023-04-24T03:34:13;5.88;;;4.95;;
52668;SDS011;59898;52.786;6.892;2023-04-24T03:37:33;6.88;;;5.80;;
52668;SDS011;59898;52.786;6.892;2023-04-24T03:40:54;7.05;;;6.03;;
52668;SDS011;59898;52.786;6.892;2023-04-24T03:44:15;7.40;;;6.70;;
52668;SDS011;59898;52.786;6.892;2023-04-24T03:47:35;7.47;;;6.03;;
52668;SDS011;59898;52.786;6.892;2023-04-24T03:50:56;6.95;;;6.00;;
52668;SDS011;59898;52.786;6.892;2023-04-24T03:54:16;6.32;;;5.20;;
52668;SDS011;59898;52.786;6.892;2023-04-24T03:57:37;7.07;;;6.32;;
52668;SDS011;59898;52.786;6.892;2023-04-24T04:00:58;6.53;;;5.80;;
52668;SDS011;59898;52.786;6.892;2023-04-24T04:04:18;7.63;;;5.63;;
52668;SDS011;59898;52.786;6.892;2023-04-24T04:07:39;7.38;;;5.45;;
52668;SDS011;59898;52.786;6.892;2023-04-24T04:11:00;9.70;;;5.22;;
52668;SDS011;59898;52.786;6.892;2023-04-24T04:14:21;7.85;;;5.55;;
52668;SDS011;59898;52.786;6.892;2023-04-24T04:17:41;6.15;;;5.50;;
52668;SDS011;59898;52.786;6.892;2023-04-24T04:21:02;6.75;;;6.05;;
52668;SDS011;59898;52.786;6.892;2023-04-24T04:24:23;6.88;;;5.43;;
52668;SDS011;59898;52.786;6.892;2023-04-24T04:27:44;7.25;;;6.28;;
52668;SDS011;59898;52.786;6.892;2023-04-24T04:31:05;7.53;;;6.63;;
52668;SDS011;59898;52.786;6.892;2023-04-24T04:34:27;7.45;;;6.65;;
52668;SDS011;59898;52.786;6.892;2023-04-24T04:37:48;9.43;;;7.47;;
52668;SDS011;59898;52.786;6.892;2023-04-24T04:41:09;9.38;;;7.70;;
52668;SDS011;59898;52.786;6.892;2023-04-24T04:44:30;10.20;;;7.50;;
52668;SDS011;59898;52.786;6.892;2023-04-24T04:47:51;8.50;;;6.47;;
52668;SDS011;59898;52.786;6.892;2023-04-24T04:51:11;9.35;;;8.18;;
52668;SDS011;59898;52.786;6.892;2023-04-24T04:54:32;7.97;;;6.60;;
52668;SDS011;59898;52.786;6.892;2023-04-24T04:57:53;8.50;;;7.60;;
52668;SDS011;59898;52.786;6.892;2023-04-24T05:01:15;7.90;;;7.07;;
52668;SDS011;59898;52.786;6.892;2023-04-24T05:04:36;7.93;;;6.65;;
52668;SDS011;59898;52.786;6.892;2023-04-24T05:07:56;9.43;;;7.10;;
52668;SDS011;59898;52.786;6.892;2023-04-24T05:11:17;9.77;;;7.82;;
52668;SDS011;59898;52.786;6.892;2023-04-24T05:14:37;7.75;;;6.47;;
52668;SDS011;59898;52.786;6.892;2023-04-24T05:17:58;7.70;;;6.00;;
52668;SDS011;59898;52.786;6.892;2023-04-24T05:21:20;9.25;;;6.47;;
52668;SDS011;59898;52.786;6.892;2023-04-24T05:24:40;6.35;;;5.55;;
52668;SDS011;59898;52.786;6.892;2023-04-24T05:28:01;9.07;;;6.95;;
52668;SDS011;59898;52.786;6.892;2023-04-24T05:31:22;6.57;;;5.50;;
52668;SDS011;59898;52.786;6.892;2023-04-24T05:34:42;6.78;;;5.35;;
52668;SDS011;59898;52.786;6.892;2023-04-24T05:38:03;6.00;;;4.95;;
52668;SDS011;59898;52.786;6.892;2023-04-24T05:41:23;6.38;;;4.82;;
52668;SDS011;59898;52.786;6.892;2023-04-24T05:44:45;4.95;;;3.95;;
52668;SDS011;59898;52.786;6.892;2023-04-24T05:48:05;4.93;;;4.05;;
52668;SDS011;59898;52.786;6.892;2023-04-24T05:51:26;4.95;;;3.55;;
52668;SDS011;59898;52.786;6.892;2023-04-24T05:54:46;7.00;;;3.90;;
52668;SDS011;59898;52.786;6.892;2023-04-24T05:58:07;5.32;;;3.47;;
52668;SDS011;59898;52.786;6.892;2023-04-24T06:01:27;6.47;;;4.05;;
52668;SDS011;59898;52.786;6.892;2023-04-24T06:04:48;6.22;;;4.28;;
52668;SDS011;59898;52.786;6.892;2023-04-24T06:08:09;4.80;;;3.63;;
52668;SDS011;59898;52.786;6.892;2023-04-24T06:11:30;3.72;;;3.15;;
52668;SDS011;59898;52.786;6.892;2023-04-24T06:14:50;4.93;;;3.17;;
52668;SDS011;59898;52.786;6.892;2023-04-24T06:18:11;4.47;;;3.20;;
52668;SDS011;59898;52.786;6.892;2023-04-24T06:21:32;5.22;;;2.95;;
52668;SDS011;59898;52.786;6.892;2023-04-24T06:24:53;4.00;;;3.05;;
52668;SDS011;59898;52.786;6.892;2023-04-24T06:28:13;4.28;;;2.70;;
52668;SDS011;59898;52.786;6.892;2023-04-24T06:31:34;4.60;;;3.35;;
52668;SDS011;59898;52.786;6.892;2023-04-24T06:34:56;4.10;;;3.05;;
52668;SDS011;59898;52.786;6.892;2023-04-24T06:38:17;3.72;;;2.85;;
52668;SDS011;59898;52.786;6.892;2023-04-24T06:41:38;3.67;;;2.78;;
52668;SDS011;59898;52.786;6.892;2023-04-24T06:44:59;4.22;;;3.35;;
52668;SDS011;59898;52.786;6.892;2023-04-24T06:48:20;3.97;;;3.03;;
52668;SDS011;59898;52.786;6.892;2023-04-24T06:51:41;4.47;;;3.00;;
52668;SDS011;59898;52.786;6.892;2023-04-24T06:55:01;4.25;;;3.03;;
52668;SDS011;59898;52.786;6.892;2023-04-24T06:58:23;3.05;;;2.40;;
52668;SDS011;59898;52.786;6.892;2023-04-24T07:01:45;6.38;;;3.40;;
52668;SDS011;59898;52.786;6.892;2023-04-24T07:05:05;3.85;;;3.13;;
52668;SDS011;59898;52.786;6.892;2023-04-24T07:08:28;2.42;;;1.77;;
52668;SDS011;59898;52.786;6.892;2023-04-24T07:11:50;3.40;;;2.50;;
52668;SDS011;59898;52.786;6.892;2023-04-24T07:15:11;3.92;;;2.70;;
52668;SDS011;59898;52.786;6.892;2023-04-24T07:18:32;3.20;;;2.15;;
52668;SDS011;59898;52.786;6.892;2023-04-24T07:21:53;4.28;;;2.60;;
52668;SDS011;59898;52.786;6.892;2023-04-24T07:25:15;2.90;;;1.50;;
52668;SDS011;59898;52.786;6.892;2023-04-24T07:28:35;8.40;;;1.60;;
52668;SDS011;59898;52.786;6.892;2023-04-24T07:31:57;2.22;;;1.75;;
52668;SDS011;59898;52.786;6.892;2023-04-24T07:35:17;2.67;;;1.60;;
52668;SDS011;59898;52.786;6.892;2023-04-24T07:38:38;2.58;;;1.80;;
52668;SDS011;59898;52.786;6.892;2023-04-24T07:41:58;3.88;;;2.00;;
52668;SDS011;59898;52.786;6.892;2023-04-24T07:45:19;2.65;;;1.85;;
52668;SDS011;59898;52.786;6.892;2023-04-24T07:48:40;3.50;;;2.47;;
52668;SDS011;59898;52.786;6.892;2023-04-24T07:52:01;4.40;;;2.85;;
52668;SDS011;59898;52.786;6.892;2023-04-24T07:55:22;4.03;;;2.75;;
52668;SDS011;59898;52.786;6.892;2023-04-24T07:58:43;4.60;;;2.60;;
52668;SDS011;59898;52.786;6.892;2023-04-24T08:02:03;3.30;;;2.60;;
52668;SDS011;59898;52.786;6.892;2023-04-24T08:05:24;4.45;;;3.28;;
52668;SDS011;59898;52.786;6.892;2023-04-24T08:08:47;5.50;;;3.88;;
52668;SDS011;59898;52.786;6.892;2023-04-24T08:12:07;5.43;;;3.65;;
52668;SDS011;59898;52.786;6.892;2023-04-24T08:15:28;4.50;;;3.38;;
52668;SDS011;59898;52.786;6.892;2023-04-24T08:18:49;4.18;;;2.97;;
52668;SDS011;59898;52.786;6.892;2023-04-24T08:22:10;7.05;;;3.00;;
52668;SDS011;59898;52.786;6.892;2023-04-24T08:25:30;5.47;;;2.80;;
52668;SDS011;59898;52.786;6.892;2023-04-24T08:28:51;5.03;;;3.53;;
52668;SDS011;59898;52.786;6.892;2023-04-24T08:32:11;4.90;;;3.38;;
52668;SDS011;59898;52.786;6.892;2023-04-24T08:35:32;3.85;;;2.95;;
52668;SDS011;59898;52.786;6.892;2023-04-24T08:38:53;5.22;;;3.05;;
52668;SDS011;59898;52.786;6.892;2023-04-24T08:42:13;3.67;;;2.70;;
52668;SDS011;59898;52.786;6.892;2023-04-24T08:45:35;3.97;;;2.75;;
52668;SDS011;59898;52.786;6.892;2023-04-24T08:48:56;9.60;;;2.60;;
52668;SDS011;59898;52.786;6.892;2023-04-24T08:52:18;3.22;;;2.60;;
52668;SDS011;59898;52.786;6.892;2023-04-24T08:55:40;4.47;;;2.70;;
52668;SDS011;59898;52.786;6.892;2023-04-24T08:59:03;4.57;;;3.25;;
52668;SDS011;59898;52.786;6.892;2023-04-24T09:02:25;3.92;;;2.90;;
52668;SDS011;59898;52.786;6.892;2023-04-24T09:05:47;9.85;;;4.55;;
52668;SDS011;59898;52.786;6.892;2023-04-24T09:12:31;10.60;;;6.45;;
52668;SDS011;59898;52.786;6.892;2023-04-24T09:15:52;11.70;;;7.45;;
52668;SDS011;59898;52.786;6.892;2023-04-24T09:19:14;15.43;;;7.95;;
52668;SDS011;59898;52.786;6.892;2023-04-24T09:22:34;14.65;;;8.38;;
52668;SDS011;59898;52.786;6.892;2023-04-24T09:25:55;11.60;;;8.38;;
52668;SDS011;59898;52.786;6.892;2023-04-24T09:29:17;12.05;;;8.65;;
52668;SDS011;59898;52.786;6.892;2023-04-24T09:32:38;15.73;;;10.75;;
52668;SDS011;59898;52.786;6.892;2023-04-24T09:35:59;13.65;;;9.90;;
52668;SDS011;59898;52.786;6.892;2023-04-24T09:39:20;14.07;;;10.15;;
52668;SDS011;59898;52.786;6.892;2023-04-24T09:42:44;12.50;;;10.30;;
52668;SDS011;59898;52.786;6.892;2023-04-24T09:46:12;17.65;;;10.65;;
52668;SDS011;59898;52.786;6.892;2023-04-24T09:49:33;21.48;;;14.23;;
52668;SDS011;59898;52.786;6.892;2023-04-24T09:52:59;20.40;;;12.82;;
52668;SDS011;59898;52.786;6.892;2023-04-24T09:56:22;21.88;;;14.15;;
52668;SDS011;59898;52.786;6.892;2023-04-24T09:59:46;25.45;;;16.10;;
52668;SDS011;59898;52.786;6.892;2023-04-24T10:03:07;20.65;;;15.48;;
52668;SDS011;59898;52.786;6.892;2023-04-24T10:06:32;21.80;;;14.27;;
52668;SDS011;59898;52.786;6.892;2023-04-24T10:09:54;21.23;;;15.32;;
52668;SDS011;59898;52.786;6.892;2023-04-24T10:13:15;18.73;;;13.70;;
52668;SDS011;59898;52.786;6.892;2023-04-24T10:16:36;17.42;;;12.20;;
52668;SDS011;59898;52.786;6.892;2023-04-24T10:19:58;17.70;;;13.18;;
52668;SDS011;59898;52.786;6.892;2023-04-24T10:23:21;17.60;;;12.27;;
52668;SDS011;59898;52.786;6.892;2023-04-24T10:26:43;16.70;;;10.95;;
52668;SDS011;59898;52.786;6.892;2023-04-24T10:30:05;14.30;;;10.63;;
52668;SDS011;59898;52.786;6.892;2023-04-24T10:33:27;14.82;;;11.40;;
52668;SDS011;59898;52.786;6.892;2023-04-24T10:36:51;15.38;;;9.70;;
52668;SDS011;59898;52.786;6.892;2023-04-24T10:40:16;14.02;;;9.85;;
52668;SDS011;59898;52.786;6.892;2023-04-24T10:43:39;14.95;;;9.70;;
52668;SDS011;59898;52.786;6.892;2023-04-24T10:47:00;14.68;;;9.02;;
52668;SDS011;59898;52.786;6.892;2023-04-24T10:50:22;17.08;;;10.15;;
52668;SDS011;59898;52.786;6.892;2023-04-24T10:53:43;17.20;;;9.30;;
52668;SDS011;59898;52.786;6.892;2023-04-24T11:00:43;16.33;;;9.00;;
52668;SDS011;59898;52.786;6.892;2023-04-24T11:04:05;14.20;;;8.10;;
52668;SDS011;59898;52.786;6.892;2023-04-24T11:07:25;12.20;;;7.43;;
52668;SDS011;59898;52.786;6.892;2023-04-24T11:10:46;9.30;;;5.57;;
52668;SDS011;59898;52.786;6.892;2023-04-24T11:14:14;12.85;;;5.68;;
52668;SDS011;59898;52.786;6.892;2023-04-24T11:17:36;10.68;;;4.63;;
52668;SDS011;59898;52.786;6.892;2023-04-24T11:20:59;12.80;;;5.28;;
52668;SDS011;59898;52.786;6.892;2023-04-24T11:27:52;10.65;;;4.97;;
52668;SDS011;59898;52.786;6.892;2023-04-24T11:31:40;11.27;;;5.35;;
52668;SDS011;59898;52.786;6.892;2023-04-24T11:35:08;15.13;;;5.22;;
52668;SDS011;59898;52.786;6.892;2023-04-24T11:38:36;10.73;;;3.90;;
52668;SDS011;59898;52.786;6.892;2023-04-24T11:42:02;9.43;;;4.47;;
52668;SDS011;59898;52.786;6.892;2023-04-24T11:45:24;9.60;;;4.20;;
52668;SDS011;59898;52.786;6.892;2023-04-24T11:48:46;8.52;;;3.83;;
52668;SDS011;59898;52.786;6.892;2023-04-24T11:52:06;12.85;;;4.13;;
52668;SDS011;59898;52.786;6.892;2023-04-24T11:55:27;14.23;;;6.57;;
52668;SDS011;59898;52.786;6.892;2023-04-24T11:58:50;11.70;;;3.47;;
52668;SDS011;59898;52.786;6.892;2023-04-24T12:02:22;12.98;;;3.55;;
52668;SDS011;59898;52.786;6.892;2023-04-24T12:05:44;5.95;;;3.63;;
52668;SDS011;59898;52.786;6.892;2023-04-24T12:09:05;6.95;;;3.70;;
52668;SDS011;59898;52.786;6.892;2023-04-24T12:12:27;6.20;;;3.10;;
52668;SDS011;59898;52.786;6.892;2023-04-24T12:15:49;11.88;;;3.72;;
52668;SDS011;59898;52.786;6.892;2023-04-24T12:19:10;13.00;;;3.30;;
52668;SDS011;59898;52.786;6.892;2023-04-24T12:22:44;11.57;;;3.35;;
52668;SDS011;59898;52.786;6.892;2023-04-24T12:26:07;9.20;;;3.08;;
52668;SDS011;59898;52.786;6.892;2023-04-24T12:29:28;6.45;;;3.00;;
52668;SDS011;59898;52.786;6.892;2023-04-24T12:32:49;10.60;;;3.97;;
52668;SDS011;59898;52.786;6.892;2023-04-24T12:36:11;5.45;;;2.60;;
52668;SDS011;59898;52.786;6.892;2023-04-24T12:39:32;13.55;;;3.15;;
52668;SDS011;59898;52.786;6.892;2023-04-24T12:42:53;6.65;;;2.67;;
52668;SDS011;59898;52.786;6.892;2023-04-24T12:46:13;6.60;;;2.72;;
52668;SDS011;59898;52.786;6.892;2023-04-24T12:49:34;10.07;;;3.33;;
52668;SDS011;59898;52.786;6.892;2023-04-24T12:52:55;9.07;;;3.33;;
52668;SDS011;59898;52.786;6.892;2023-04-24T12:56:15;8.88;;;3.05;;
52668;SDS011;59898;52.786;6.892;2023-04-24T12:59:37;3.88;;;2.60;;
52668;SDS011;59898;52.786;6.892;2023-04-24T13:02:59;7.97;;;3.22;;
52668;SDS011;59898;52.786;6.892;2023-04-24T13:06:19;8.82;;;2.97;;
52668;SDS011;59898;52.786;6.892;2023-04-24T13:09:41;5.20;;;2.13;;
52668;SDS011;59898;52.786;6.892;2023-04-24T13:13:02;10.18;;;4.18;;
52668;SDS011;59898;52.786;6.892;2023-04-24T13:16:23;4.45;;;2.00;;
52668;SDS011;59898;52.786;6.892;2023-04-24T13:19:44;4.43;;;1.40;;
52668;SDS011;59898;52.786;6.892;2023-04-24T13:23:05;2.55;;;1.35;;
52668;SDS011;59898;52.786;6.892;2023-04-24T13:26:25;5.35;;;1.70;;
52668;SDS011;59898;52.786;6.892;2023-04-24T13:29:46;3.75;;;1.90;;
52668;SDS011;59898;52.786;6.892;2023-04-24T13:33:06;10.05;;;2.80;;
52668;SDS011;59898;52.786;6.892;2023-04-24T13:36:27;8.80;;;2.65;;
52668;SDS011;59898;52.786;6.892;2023-04-24T13:39:48;3.17;;;1.98;;
52668;SDS011;59898;52.786;6.892;2023-04-24T13:43:08;4.43;;;2.00;;
52668;SDS011;59898;52.786;6.892;2023-04-24T13:46:29;7.07;;;2.03;;
52668;SDS011;59898;52.786;6.892;2023-04-24T13:49:50;3.60;;;1.90;;
52668;SDS011;59898;52.786;6.892;2023-04-24T13:53:11;3.28;;;2.05;;
52668;SDS011;59898;52.786;6.892;2023-04-24T13:56:31;4.80;;;2.20;;
52668;SDS011;59898;52.786;6.892;2023-04-24T13:59:52;5.65;;;1.90;;
52668;SDS011;59898;52.786;6.892;2023-04-24T14:03:13;6.57;;;2.10;;
52668;SDS011;59898;52.786;6.892;2023-04-24T14:06:33;4.25;;;2.20;;
52668;SDS011;59898;52.786;6.892;2023-04-24T14:09:54;4.35;;;2.35;;
52668;SDS011;59898;52.786;6.892;2023-04-24T14:13:15;4.20;;;2.40;;
52668;SDS011;59898;52.786;6.892;2023-04-24T14:16:36;7.22;;;2.38;;
52668;SDS011;59898;52.786;6.892;2023-04-24T14:19:57;6.18;;;1.90;;
52668;SDS011;59898;52.786;6.892;2023-04-24T14:23:19;3.55;;;1.80;;
52668;SDS011;59898;52.786;6.892;2023-04-24T14:26:40;5.35;;;2.80;;
52668;SDS011;59898;52.786;6.892;2023-04-24T14:30:00;5.10;;;1.55;;
52668;SDS011;59898;52.786;6.892;2023-04-24T14:33:21;4.65;;;2.00;;
52668;SDS011;59898;52.786;6.892;2023-04-24T14:36:42;5.22;;;2.00;;
52668;SDS011;59898;52.786;6.892;2023-04-24T14:40:03;6.63;;;4.07;;
52668;SDS011;59898;52.786;6.892;2023-04-24T14:43:26;5.47;;;2.47;;
52668;SDS011;59898;52.786;6.892;2023-04-24T14:46:47;7.25;;;2.72;;
52668;SDS011;59898;52.786;6.892;2023-04-24T14:50:08;10.02;;;3.78;;
52668;SDS011;59898;52.786;6.892;2023-04-24T14:53:29;12.30;;;2.90;;
52668;SDS011;59898;52.786;6.892;2023-04-24T14:56:50;10.07;;;2.85;;
52668;SDS011;59898;52.786;6.892;2023-04-24T15:00:11;10.95;;;3.15;;
52668;SDS011;59898;52.786;6.892;2023-04-24T15:03:32;13.35;;;3.80;;
52668;SDS011;59898;52.786;6.892;2023-04-24T15:06:52;12.73;;;3.70;;
52668;SDS011;59898;52.786;6.892;2023-04-24T15:10:16;7.40;;;3.63;;
52668;SDS011;59898;52.786;6.892;2023-04-24T15:13:37;14.55;;;3.47;;
52668;SDS011;59898;52.786;6.892;2023-04-24T15:16:58;8.98;;;3.60;;
52668;SDS011;59898;52.786;6.892;2023-04-24T15:20:18;8.35;;;3.53;;
52668;SDS011;59898;52.786;6.892;2023-04-24T15:23:39;10.13;;;3.25;;
52668;SDS011;59898;52.786;6.892;2023-04-24T15:27:00;13.30;;;3.65;;
52668;SDS011;59898;52.786;6.892;2023-04-24T15:30:21;8.38;;;4.50;;
52668;SDS011;59898;52.786;6.892;2023-04-24T15:33:42;9.13;;;3.67;;
52668;SDS011;59898;52.786;6.892;2023-04-24T15:37:02;9.75;;;4.30;;
52668;SDS011;59898;52.786;6.892;2023-04-24T15:40:23;9.45;;;4.00;;
52668;SDS011;59898;52.786;6.892;2023-04-24T15:43:44;13.48;;;3.42;;
52668;SDS011;59898;52.786;6.892;2023-04-24T15:47:04;10.05;;;3.08;;
52668;SDS011;59898;52.786;6.892;2023-04-24T15:50:25;7.07;;;3.42;;
52668;SDS011;59898;52.786;6.892;2023-04-24T15:53:46;9.65;;;3.40;;
52668;SDS011;59898;52.786;6.892;2023-04-24T15:57:07;11.05;;;3.28;;
52668;SDS011;59898;52.786;6.892;2023-04-24T16:00:27;6.13;;;2.88;;
52668;SDS011;59898;52.786;6.892;2023-04-24T16:03:53;8.75;;;2.97;;
52668;SDS011;59898;52.786;6.892;2023-04-24T16:07:13;17.05;;;4.25;;
52668;SDS011;59898;52.786;6.892;2023-04-24T16:10:37;15.27;;;5.50;;
52668;SDS011;59898;52.786;6.892;2023-04-24T16:13:57;15.02;;;3.67;;
52668;SDS011;59898;52.786;6.892;2023-04-24T16:17:18;7.80;;;3.50;;
52668;SDS011;59898;52.786;6.892;2023-04-24T16:20:38;9.63;;;6.25;;
52668;SDS011;59898;52.786;6.892;2023-04-24T16:23:59;8.38;;;3.88;;
52668;SDS011;59898;52.786;6.892;2023-04-24T16:27:20;9.00;;;3.58;;
52668;SDS011;59898;52.786;6.892;2023-04-24T16:30:40;14.68;;;3.60;;
52668;SDS011;59898;52.786;6.892;2023-04-24T16:34:01;9.15;;;3.17;;
52668;SDS011;59898;52.786;6.892;2023-04-24T16:37:21;5.25;;;3.45;;
52668;SDS011;59898;52.786;6.892;2023-04-24T16:40:42;9.10;;;3.03;;
52668;SDS011;59898;52.786;6.892;2023-04-24T16:44:03;9.40;;;3.33;;
52668;SDS011;59898;52.786;6.892;2023-04-24T16:47:24;6.38;;;2.92;;
52668;SDS011;59898;52.786;6.892;2023-04-24T16:50:45;10.35;;;3.13;;
52668;SDS011;59898;52.786;6.892;2023-04-24T16:54:06;6.72;;;3.30;;
52668;SDS011;59898;52.786;6.892;2023-04-24T16:57:26;6.93;;;2.67;;
52668;SDS011;59898;52.786;6.892;2023-04-24T17:00:47;6.28;;;3.05;;
52668;SDS011;59898;52.786;6.892;2023-04-24T17:04:09;4.32;;;2.53;;
52668;SDS011;59898;52.786;6.892;2023-04-24T17:07:29;4.78;;;2.85;;
52668;SDS011;59898;52.786;6.892;2023-04-24T17:10:50;6.25;;;2.95;;
52668;SDS011;59898;52.786;6.892;2023-04-24T17:14:11;9.95;;;3.17;;
52668;SDS011;59898;52.786;6.892;2023-04-24T17:17:32;5.68;;;2.72;;
52668;SDS011;59898;52.786;6.892;2023-04-24T17:20:52;7.72;;;3.08;;
52668;SDS011;59898;52.786;6.892;2023-04-24T17:24:13;8.52;;;2.92;;
52668;SDS011;59898;52.786;6.892;2023-04-24T17:27:33;9.85;;;5.78;;
52668;SDS011;59898;52.786;6.892;2023-04-24T17:30:54;12.25;;;3.25;;
52668;SDS011;59898;52.786;6.892;2023-04-24T17:34:18;8.30;;;4.13;;
52668;SDS011;59898;52.786;6.892;2023-04-24T17:37:39;7.95;;;4.00;;
52668;SDS011;59898;52.786;6.892;2023-04-24T17:41:00;9.07;;;3.05;;
52668;SDS011;59898;52.786;6.892;2023-04-24T17:44:20;5.43;;;2.92;;
52668;SDS011;59898;52.786;6.892;2023-04-24T17:47:41;7.68;;;3.50;;
52668;SDS011;59898;52.786;6.892;2023-04-24T17:51:02;8.45;;;3.75;;
52668;SDS011;59898;52.786;6.892;2023-04-24T17:54:22;11.10;;;3.97;;
52668;SDS011;59898;52.786;6.892;2023-04-24T17:57:43;11.77;;;4.30;;
52668;SDS011;59898;52.786;6.892;2023-04-24T18:01:03;11.93;;;3.67;;
52668;SDS011;59898;52.786;6.892;2023-04-24T18:04:24;6.22;;;3.35;;
52668;SDS011;59898;52.786;6.892;2023-04-24T18:07:45;10.73;;;3.53;;
52668;SDS011;59898;52.786;6.892;2023-04-24T18:11:05;9.55;;;3.67;;
52668;SDS011;59898;52.786;6.892;2023-04-24T18:14:26;6.93;;;3.17;;
52668;SDS011;59898;52.786;6.892;2023-04-24T18:17:47;5.65;;;3.25;;
52668;SDS011;59898;52.786;6.892;2023-04-24T18:21:08;9.02;;;3.40;;
52668;SDS011;59898;52.786;6.892;2023-04-24T18:24:28;10.35;;;4.38;;
52668;SDS011;59898;52.786;6.892;2023-04-24T18:27:49;11.13;;;4.00;;
52668;SDS011;59898;52.786;6.892;2023-04-24T18:31:10;11.85;;;4.25;;
52668;SDS011;59898;52.786;6.892;2023-04-24T18:34:30;6.43;;;3.30;;
52668;SDS011;59898;52.786;6.892;2023-04-24T18:37:51;5.68;;;2.92;;
52668;SDS011;59898;52.786;6.892;2023-04-24T18:41:12;4.65;;;2.25;;
52668;SDS011;59898;52.786;6.892;2023-04-24T18:44:33;4.03;;;2.47;;
52668;SDS011;59898;52.786;6.892;2023-04-24T18:47:54;6.78;;;2.65;;
52668;SDS011;59898;52.786;6.892;2023-04-24T18:51:14;11.30;;;6.32;;
52668;SDS011;59898;52.786;6.892;2023-04-24T18:54:35;5.88;;;3.30;;
52668;SDS011;59898;52.786;6.892;2023-04-24T18:57:55;6.50;;;3.60;;
52668;SDS011;59898;52.786;6.892;2023-04-24T19:01:16;5.70;;;3.65;;
52668;SDS011;59898;52.786;6.892;2023-04-24T19:04:37;6.22;;;3.30;;
52668;SDS011;59898;52.786;6.892;2023-04-24T19:07:57;5.85;;;3.35;;
52668;SDS011;59898;52.786;6.892;2023-04-24T19:11:18;8.15;;;2.95;;
52668;SDS011;59898;52.786;6.892;2023-04-24T19:14:39;5.20;;;3.17;;
52668;SDS011;59898;52.786;6.892;2023-04-24T19:17:59;8.45;;;3.78;;
52668;SDS011;59898;52.786;6.892;2023-04-24T19:21:20;8.27;;;3.47;;
52668;SDS011;59898;52.786;6.892;2023-04-24T19:24:41;6.10;;;3.80;;
52668;SDS011;59898;52.786;6.892;2023-04-24T19:28:02;6.47;;;4.13;;
52668;SDS011;59898;52.786;6.892;2023-04-24T19:31:25;9.55;;;3.88;;
52668;SDS011;59898;52.786;6.892;2023-04-24T19:34:46;11.25;;;3.92;;
52668;SDS011;59898;52.786;6.892;2023-04-24T19:38:07;7.35;;;4.00;;
52668;SDS011;59898;52.786;6.892;2023-04-24T19:41:27;6.97;;;3.90;;
52668;SDS011;59898;52.786;6.892;2023-04-24T19:44:48;11.13;;;3.97;;
52668;SDS011;59898;52.786;6.892;2023-04-24T19:48:08;9.65;;;5.15;;
52668;SDS011;59898;52.786;6.892;2023-04-24T19:51:29;15.93;;;5.80;;
52668;SDS011;59898;52.786;6.892;2023-04-24T19:54:51;9.63;;;5.00;;
52668;SDS011;59898;52.786;6.892;2023-04-24T19:58:11;12.90;;;6.57;;
52668;SDS011;59898;52.786;6.892;2023-04-24T20:01:32;11.82;;;5.85;;
52668;SDS011;59898;52.786;6.892;2023-04-24T20:04:52;12.05;;;5.95;;
52668;SDS011;59898;52.786;6.892;2023-04-24T20:08:13;11.20;;;5.10;;
52668;SDS011;59898;52.786;6.892;2023-04-24T20:11:34;11.63;;;4.63;;
52668;SDS011;59898;52.786;6.892;2023-04-24T20:14:54;12.70;;;5.70;;
52668;SDS011;59898;52.786;6.892;2023-04-24T20:18:15;10.02;;;5.65;;